^^
Saratoga-Weather Station Historical Data
Daily Summary for January 28, 2022 Units:  Both    English   Metric
Daily Weekly Monthly Yearly Custom
  High: Low: Average:
Temperature: 40.8 °F /  4.9 °C 35.8 °F /  2.1 °C 38.1 °F /  3.4 °C
Dew Point: 38.5 °F /  3.6 °C 34.5 °F /  1.4 °C 36.5 °F /  2.5 °C
Humidity: 97% 90% 94%
Wind Speed: 11mph /  17.7km/h - 3.4mph /  5.5km/h
Wind Gust: 13mph /  20.9km/h - -
Wind- - West
Pressure: 30.6 in /  1036.9 hPa 30.5 in /  1031.2 hPa -
Precipitation: 0 in /  0.0 mm    
Historical Graphs
 
 
Tabular Data for January 28, 2022
Time Temperature Dew Point Pressure Wind Wind Speed Wind Gust Humidity Rainfall Rate (Hourly) solar
00:04 35.8 °F /  2.1 °C 34.5 °F /  1.4 °C 30.5in /  1031.2hPa WNW 6.9mph /  11.1km/h 12mph /  19.3km/h 95% 0in /  0.0mm 0 W/m2
00:09 36 °F /  2.2 °C 34.9 °F /  1.6 °C 30.5in /  1031.2hPa WNW 4mph /  6.4km/h 10mph /  16.1km/h 96% 0in /  0.0mm 0 W/m2
00:14 35.8 °F /  2.1 °C 34.7 °F /  1.5 °C 30.5in /  1031.2hPa WNW 4mph /  6.4km/h 12mph /  19.3km/h 96% 0in /  0.0mm 0 W/m2
00:19 35.8 °F /  2.1 °C 34.7 °F /  1.5 °C 30.5in /  1031.5hPa WNW 4mph /  6.4km/h 8mph /  12.9km/h 96% 0in /  0.0mm 0 W/m2
00:24 35.8 °F /  2.1 °C 34.7 °F /  1.5 °C 30.5in /  1031.5hPa WNW 6.9mph /  11.1km/h 9mph /  14.5km/h 96% 0in /  0.0mm 0 W/m2
00:29 35.8 °F /  2.1 °C 34.5 °F /  1.4 °C 30.5in /  1031.5hPa West 4mph /  6.4km/h 6mph /  9.7km/h 95% 0in /  0.0mm 0 W/m2
00:34 36 °F /  2.2 °C 34.9 °F /  1.6 °C 30.5in /  1031.5hPa NNE 0.9mph /  1.4km/h 2mph /  3.2km/h 96% 0in /  0.0mm 0 W/m2
00:39 35.8 °F /  2.1 °C 34.7 °F /  1.5 °C 30.5in /  1031.5hPa SSW 2mph /  3.2km/h 10mph /  16.1km/h 96% 0in /  0.0mm 0 W/m2
00:44 35.8 °F /  2.1 °C 34.7 °F /  1.5 °C 30.5in /  1031.5hPa WNW 4mph /  6.4km/h 7mph /  11.3km/h 96% 0in /  0.0mm 0 W/m2
00:49 35.8 °F /  2.1 °C 34.7 °F /  1.5 °C 30.5in /  1031.2hPa WSW 6.9mph /  11.1km/h 7mph /  11.3km/h 96% 0in /  0.0mm 0 W/m2
00:54 35.8 °F /  2.1 °C 34.7 °F /  1.5 °C 30.5in /  1031.5hPa WSW 4.9mph /  7.9km/h 10mph /  16.1km/h 96% 0in /  0.0mm 0 W/m2
00:59 35.8 °F /  2.1 °C 34.7 °F /  1.5 °C 30.5in /  1031.5hPa WNW 11mph /  17.7km/h 11mph /  17.7km/h 96% 0in /  0.0mm 0 W/m2
01:04 35.8 °F /  2.1 °C 34.7 °F /  1.5 °C 30.5in /  1031.5hPa WSW 8.1mph /  13km/h 12mph /  19.3km/h 96% 0in /  0.0mm 0 W/m2
01:09 35.8 °F /  2.1 °C 34.7 °F /  1.5 °C 30.5in /  1031.5hPa WSW 4.9mph /  7.9km/h 10mph /  16.1km/h 96% 0in /  0.0mm 0 W/m2
01:14 35.8 °F /  2.1 °C 34.7 °F /  1.5 °C 30.5in /  1031.5hPa WNW 6.9mph /  11.1km/h 11mph /  17.7km/h 96% 0in /  0.0mm 0 W/m2
01:19 35.8 °F /  2.1 °C 34.7 °F /  1.5 °C 30.5in /  1031.5hPa West 6.9mph /  11.1km/h 11mph /  17.7km/h 96% 0in /  0.0mm 0 W/m2
01:24 35.8 °F /  2.1 °C 34.7 °F /  1.5 °C 30.5in /  1031.5hPa WSW 6.9mph /  11.1km/h 11mph /  17.7km/h 96% 0in /  0.0mm 0 W/m2
01:29 35.8 °F /  2.1 °C 34.7 °F /  1.5 °C 30.5in /  1031.5hPa WSW 8.1mph /  13km/h 10mph /  16.1km/h 96% 0in /  0.0mm 0 W/m2
01:34 35.8 °F /  2.1 °C 34.7 °F /  1.5 °C 30.5in /  1031.5hPa WSW 8.1mph /  13km/h 10mph /  16.1km/h 96% 0in /  0.0mm 0 W/m2
01:39 35.8 °F /  2.1 °C 34.7 °F /  1.5 °C 30.5in /  1031.8hPa WNW 0.9mph /  1.4km/h 12mph /  19.3km/h 96% 0in /  0.0mm 0 W/m2
01:44 36 °F /  2.2 °C 34.9 °F /  1.6 °C 30.5in /  1031.5hPa West 6.9mph /  11.1km/h 10mph /  16.1km/h 96% 0in /  0.0mm 0 W/m2
01:49 36 °F /  2.2 °C 34.9 °F /  1.6 °C 30.5in /  1031.8hPa WNW 2mph /  3.2km/h 8mph /  12.9km/h 96% 0in /  0.0mm 0 W/m2
01:54 36 °F /  2.2 °C 34.9 °F /  1.6 °C 30.5in /  1031.8hPa WSW 4mph /  6.4km/h 6mph /  9.7km/h 96% 0in /  0.0mm 0 W/m2
01:59 36.1 °F /  2.3 °C 35.1 °F /  1.7 °C 30.5in /  1031.8hPa West 4mph /  6.4km/h 8mph /  12.9km/h 96% 0in /  0.0mm 0 W/m2
02:04 36.1 °F /  2.3 °C 35.1 °F /  1.7 °C 30.5in /  1031.8hPa West 2mph /  3.2km/h 10mph /  16.1km/h 96% 0in /  0.0mm 0 W/m2
02:09 36.1 °F /  2.3 °C 35.1 °F /  1.7 °C 30.5in /  1031.8hPa NNW 4.9mph /  7.9km/h 10mph /  16.1km/h 96% 0in /  0.0mm 0 W/m2
02:14 36.1 °F /  2.3 °C 35.1 °F /  1.7 °C 30.5in /  1031.8hPa SSW 4.9mph /  7.9km/h 8mph /  12.9km/h 96% 0in /  0.0mm 0 W/m2
02:19 36.3 °F /  2.4 °C 35.2 °F /  1.8 °C 30.5in /  1031.8hPa SW 4.9mph /  7.9km/h 10mph /  16.1km/h 96% 0in /  0.0mm 0 W/m2
02:24 36.3 °F /  2.4 °C 35.2 °F /  1.8 °C 30.5in /  1031.8hPa West 6mph /  9.7km/h 6mph /  9.7km/h 96% 0in /  0.0mm 0 W/m2
02:29 36.5 °F /  2.5 °C 35.4 °F /  1.9 °C 30.5in /  1031.8hPa WSW 2.9mph /  4.7km/h 7mph /  11.3km/h 96% 0in /  0.0mm 0 W/m2
02:34 36.7 °F /  2.6 °C 35.6 °F /  2 °C 30.5in /  1032.2hPa WNW 6mph /  9.7km/h 11mph /  17.7km/h 96% 0in /  0.0mm 0 W/m2
02:39 36.9 °F /  2.7 °C 35.8 °F /  2.1 °C 30.5in /  1032.5hPa West 6mph /  9.7km/h 11mph /  17.7km/h 96% 0in /  0.0mm 0 W/m2
02:44 36.9 °F /  2.7 °C 35.8 °F /  2.1 °C 30.5in /  1032.5hPa WNW 4mph /  6.4km/h 9mph /  14.5km/h 96% 0in /  0.0mm 0 W/m2
02:49 36.9 °F /  2.7 °C 35.8 °F /  2.1 °C 30.5in /  1032.5hPa West 2mph /  3.2km/h 11mph /  17.7km/h 96% 0in /  0.0mm 0 W/m2
02:54 36.9 °F /  2.7 °C 35.8 °F /  2.1 °C 30.5in /  1032.8hPa West 4mph /  6.4km/h 11mph /  17.7km/h 96% 0in /  0.0mm 0 W/m2
02:59 36.9 °F /  2.7 °C 35.8 °F /  2.1 °C 30.5in /  1032.8hPa West 6mph /  9.7km/h 8mph /  12.9km/h 96% 0in /  0.0mm 0 W/m2
03:04 36.9 °F /  2.7 °C 35.8 °F /  2.1 °C 30.5in /  1032.8hPa WSW 4.9mph /  7.9km/h 12mph /  19.3km/h 96% 0in /  0.0mm 0 W/m2
03:09 37 °F /  2.8 °C 36 °F /  2.2 °C 30.5in /  1032.8hPa West 4mph /  6.4km/h 10mph /  16.1km/h 96% 0in /  0.0mm 0 W/m2
03:14 37 °F /  2.8 °C 36.3 °F /  2.4 °C 30.5in /  1032.8hPa NW 2.9mph /  4.7km/h 8mph /  12.9km/h 97% 0in /  0.0mm 0 W/m2
03:19 37 °F /  2.8 °C 36 °F /  2.2 °C 30.5in /  1032.8hPa WSW 4.9mph /  7.9km/h 9mph /  14.5km/h 96% 0in /  0.0mm 0 W/m2
03:24 37 °F /  2.8 °C 36 °F /  2.2 °C 30.5in /  1032.8hPa SW 4mph /  6.4km/h 8mph /  12.9km/h 96% 0in /  0.0mm 0 W/m2
03:29 37 °F /  2.8 °C 36 °F /  2.2 °C 30.5in /  1032.8hPa WSW 2mph /  3.2km/h 8mph /  12.9km/h 96% 0in /  0.0mm 0 W/m2
03:34 37 °F /  2.8 °C 36 °F /  2.2 °C 30.5in /  1032.8hPa SW 2.9mph /  4.7km/h 10mph /  16.1km/h 96% 0in /  0.0mm 0 W/m2
03:39 37.2 °F /  2.9 °C 36.5 °F /  2.5 °C 30.5in /  1033.2hPa NNW 2.9mph /  4.7km/h 10mph /  16.1km/h 97% 0in /  0.0mm 0 W/m2
03:44 37.2 °F /  2.9 °C 36.1 °F /  2.3 °C 30.5in /  1033.2hPa West 2mph /  3.2km/h 6mph /  9.7km/h 96% 0in /  0.0mm 0 W/m2
03:49 37.2 °F /  2.9 °C 36.1 °F /  2.3 °C 30.5in /  1032.8hPa WNW 2mph /  3.2km/h 10mph /  16.1km/h 96% 0in /  0.0mm 0 W/m2
03:54 37.2 °F /  2.9 °C 36.1 °F /  2.3 °C 30.5in /  1033.2hPa West 8.1mph /  13km/h 10mph /  16.1km/h 96% 0in /  0.0mm 0 W/m2
03:59 37.2 °F /  2.9 °C 36.1 °F /  2.3 °C 30.5in /  1033.2hPa West 4mph /  6.4km/h 11mph /  17.7km/h 96% 0in /  0.0mm 0 W/m2
04:04 37.2 °F /  2.9 °C 36.1 °F /  2.3 °C 30.5in /  1033.2hPa West 2.9mph /  4.7km/h 8mph /  12.9km/h 96% 0in /  0.0mm 0 W/m2
04:09 37.4 °F /  3 °C 36.3 °F /  2.4 °C 30.5in /  1033.2hPa SW 4mph /  6.4km/h 11mph /  17.7km/h 96% 0in /  0.0mm 0 W/m2
04:14 37.4 °F /  3 °C 36.3 °F /  2.4 °C 30.5in /  1033.2hPa West 2.9mph /  4.7km/h 6mph /  9.7km/h 96% 0in /  0.0mm 0 W/m2
04:19 37.4 °F /  3 °C 36.3 °F /  2.4 °C 30.5in /  1033.2hPa SW 2.9mph /  4.7km/h 8mph /  12.9km/h 96% 0in /  0.0mm 0 W/m2
04:25 37.2 °F /  2.9 °C 36.1 °F /  2.3 °C 30.5in /  1033.2hPa West 4mph /  6.4km/h 8mph /  12.9km/h 96% 0in /  0.0mm 0 W/m2
04:30 37.4 °F /  3 °C 36.3 °F /  2.4 °C 30.5in /  1033.2hPa West 4mph /  6.4km/h 11mph /  17.7km/h 96% 0in /  0.0mm 0 W/m2
04:35 37.6 °F /  3.1 °C 36.5 °F /  2.5 °C 30.5in /  1033.2hPa WNW 2.9mph /  4.7km/h 9mph /  14.5km/h 96% 0in /  0.0mm 0 W/m2
04:40 37.6 °F /  3.1 °C 36.5 °F /  2.5 °C 30.5in /  1033.2hPa West 6mph /  9.7km/h 9mph /  14.5km/h 96% 0in /  0.0mm 0 W/m2
04:45 37.6 °F /  3.1 °C 36.5 °F /  2.5 °C 30.5in /  1033.2hPa West 6.9mph /  11.1km/h 8mph /  12.9km/h 96% 0in /  0.0mm 0 W/m2
04:50 37.6 °F /  3.1 °C 36.5 °F /  2.5 °C 30.5in /  1033.2hPa WNW 8.1mph /  13km/h 9mph /  14.5km/h 96% 0in /  0.0mm 0 W/m2
04:55 37.6 °F /  3.1 °C 36.5 °F /  2.5 °C 30.5in /  1033.5hPa West 6.9mph /  11.1km/h 8mph /  12.9km/h 96% 0in /  0.0mm 0 W/m2
05:00 37.6 °F /  3.1 °C 36.5 °F /  2.5 °C 30.5in /  1033.2hPa West 2.9mph /  4.7km/h 7mph /  11.3km/h 96% 0in /  0.0mm 0 W/m2
05:05 37.6 °F /  3.1 °C 36.5 °F /  2.5 °C 30.5in /  1033.2hPa WSW 2.9mph /  4.7km/h 6mph /  9.7km/h 96% 0in /  0.0mm 0 W/m2
05:10 37.6 °F /  3.1 °C 36.5 °F /  2.5 °C 30.5in /  1033.2hPa SSW 4.9mph /  7.9km/h 6mph /  9.7km/h 96% 0in /  0.0mm 0 W/m2
05:15 37.4 °F /  3 °C 36.3 °F /  2.4 °C 30.5in /  1033.2hPa West 2mph /  3.2km/h 6mph /  9.7km/h 96% 0in /  0.0mm 0 W/m2
05:20 37.4 °F /  3 °C 36.3 °F /  2.4 °C 30.5in /  1033.2hPa WSW 6.9mph /  11.1km/h 9mph /  14.5km/h 96% 0in /  0.0mm 0 W/m2
05:30 37.4 °F /  3 °C 36.3 °F /  2.4 °C 30.5in /  1033.2hPa West 4mph /  6.4km/h 7mph /  11.3km/h 96% 0in /  0.0mm 0 W/m2
05:35 37.2 °F /  2.9 °C 36.1 °F /  2.3 °C 30.5in /  1033.5hPa West 6mph /  9.7km/h 10mph /  16.1km/h 96% 0in /  0.0mm 0 W/m2
05:40 37.4 °F /  3 °C 36.3 °F /  2.4 °C 30.5in /  1033.5hPa NW 4.9mph /  7.9km/h 10mph /  16.1km/h 96% 0in /  0.0mm 0 W/m2
05:45 37.6 °F /  3.1 °C 36.5 °F /  2.5 °C 30.5in /  1033.5hPa WNW 6.9mph /  11.1km/h 8mph /  12.9km/h 96% 0in /  0.0mm 0 W/m2
05:50 37.6 °F /  3.1 °C 36.5 °F /  2.5 °C 30.5in /  1033.5hPa West 6.9mph /  11.1km/h 9mph /  14.5km/h 96% 0in /  0.0mm 0 W/m2
05:55 37.6 °F /  3.1 °C 36.5 °F /  2.5 °C 30.5in /  1033.5hPa WSW 2.9mph /  4.7km/h 8mph /  12.9km/h 96% 0in /  0.0mm 0 W/m2
06:00 37.6 °F /  3.1 °C 36.5 °F /  2.5 °C 30.5in /  1033.5hPa SW 6mph /  9.7km/h 7mph /  11.3km/h 96% 0in /  0.0mm 0 W/m2
06:05 37.6 °F /  3.1 °C 36.5 °F /  2.5 °C 30.5in /  1033.5hPa West 4mph /  6.4km/h 9mph /  14.5km/h 96% 0in /  0.0mm 0 W/m2
06:10 37.4 °F /  3 °C 36.3 °F /  2.4 °C 30.5in /  1033.9hPa West 2mph /  3.2km/h 8mph /  12.9km/h 96% 0in /  0.0mm 0 W/m2
06:15 37.6 °F /  3.1 °C 36.5 °F /  2.5 °C 30.5in /  1033.9hPa West 2.9mph /  4.7km/h 9mph /  14.5km/h 96% 0in /  0.0mm 0 W/m2
06:20 37.4 °F /  3 °C 36.1 °F /  2.3 °C 30.5in /  1033.9hPa West 4mph /  6.4km/h 8mph /  12.9km/h 95% 0in /  0.0mm 0 W/m2
06:25 37.6 °F /  3.1 °C 36.3 °F /  2.4 °C 30.5in /  1033.9hPa West 2.9mph /  4.7km/h 11mph /  17.7km/h 95% 0in /  0.0mm 0 W/m2
06:30 37.6 °F /  3.1 °C 36.3 °F /  2.4 °C 30.5in /  1033.9hPa WSW 4mph /  6.4km/h 10mph /  16.1km/h 95% 0in /  0.0mm 0 W/m2
06:35 37.4 °F /  3 °C 36.1 °F /  2.3 °C 30.5in /  1033.9hPa WNW 2.9mph /  4.7km/h 8mph /  12.9km/h 95% 0in /  0.0mm 0 W/m2
06:40 37.2 °F /  2.9 °C 36 °F /  2.2 °C 30.5in /  1033.9hPa West 6.9mph /  11.1km/h 10mph /  16.1km/h 95% 0in /  0.0mm 0 W/m2
06:45 37.2 °F /  2.9 °C 36 °F /  2.2 °C 30.5in /  1033.9hPa West 6mph /  9.7km/h 9mph /  14.5km/h 95% 0in /  0.0mm 0 W/m2
06:50 37.2 °F /  2.9 °C 36 °F /  2.2 °C 30.5in /  1033.9hPa West 4mph /  6.4km/h 10mph /  16.1km/h 95% 0in /  0.0mm 0 W/m2
06:55 37.2 °F /  2.9 °C 36 °F /  2.2 °C 30.5in /  1033.9hPa WNW 4mph /  6.4km/h 7mph /  11.3km/h 95% 0in /  0.0mm 0 W/m2
07:00 37.2 °F /  2.9 °C 36 °F /  2.2 °C 30.5in /  1033.9hPa NW 4mph /  6.4km/h 8mph /  12.9km/h 95% 0in /  0.0mm 0 W/m2
07:05 37.2 °F /  2.9 °C 36 °F /  2.2 °C 30.5in /  1033.9hPa West 4mph /  6.4km/h 6mph /  9.7km/h 95% 0in /  0.0mm 0 W/m2
07:10 37.2 °F /  2.9 °C 36 °F /  2.2 °C 30.5in /  1033.9hPa WSW 4mph /  6.4km/h 7mph /  11.3km/h 95% 0in /  0.0mm 0 W/m2
07:15 37.2 °F /  2.9 °C 36 °F /  2.2 °C 30.5in /  1033.9hPa West 6mph /  9.7km/h 8mph /  12.9km/h 95% 0in /  0.0mm 0 W/m2
07:20 37 °F /  2.8 °C 35.8 °F /  2.1 °C 30.5in /  1033.9hPa NW 2.9mph /  4.7km/h 9mph /  14.5km/h 95% 0in /  0.0mm 0 W/m2
07:25 37 °F /  2.8 °C 35.8 °F /  2.1 °C 30.5in /  1033.9hPa WNW 2.9mph /  4.7km/h 7mph /  11.3km/h 95% 0in /  0.0mm 0 W/m2
07:30 37 °F /  2.8 °C 35.8 °F /  2.1 °C 30.5in /  1033.9hPa WSW 4.9mph /  7.9km/h 9mph /  14.5km/h 95% 0in /  0.0mm 0 W/m2
07:35 37 °F /  2.8 °C 35.8 °F /  2.1 °C 30.5in /  1034.2hPa WNW 4mph /  6.4km/h 8mph /  12.9km/h 95% 0in /  0.0mm 0 W/m2
07:40 36.9 °F /  2.7 °C 35.6 °F /  2 °C 30.5in /  1034.2hPa WSW 4mph /  6.4km/h 9mph /  14.5km/h 95% 0in /  0.0mm 0 W/m2
07:45 36.9 °F /  2.7 °C 35.6 °F /  2 °C 30.5in /  1034.2hPa West 4mph /  6.4km/h 12mph /  19.3km/h 95% 0in /  0.0mm 0 W/m2
07:50 36.9 °F /  2.7 °C 35.6 °F /  2 °C 30.6in /  1034.5hPa WSW 4mph /  6.4km/h 8mph /  12.9km/h 95% 0in /  0.0mm 0 W/m2
07:55 36.9 °F /  2.7 °C 35.6 °F /  2 °C 30.6in /  1034.5hPa WNW 8.1mph /  13km/h 10mph /  16.1km/h 95% 0in /  0.0mm 0 W/m2
08:00 36.9 °F /  2.7 °C 35.6 °F /  2 °C 30.6in /  1034.5hPa West 2mph /  3.2km/h 9mph /  14.5km/h 95% 0in /  0.0mm 0 W/m2
08:05 36.9 °F /  2.7 °C 35.6 °F /  2 °C 30.6in /  1034.5hPa West 10.1mph /  16.3km/h 10mph /  16.1km/h 95% 0in /  0.0mm 0 W/m2
08:10 36.7 °F /  2.6 °C 35.4 °F /  1.9 °C 30.6in /  1034.5hPa West 2.9mph /  4.7km/h 8mph /  12.9km/h 95% 0in /  0.0mm 0 W/m2
08:15 36.7 °F /  2.6 °C 35.4 °F /  1.9 °C 30.6in /  1034.5hPa West 8.1mph /  13km/h 10mph /  16.1km/h 95% 0in /  0.0mm 5 W/m2
08:20 36.7 °F /  2.6 °C 35.4 °F /  1.9 °C 30.6in /  1034.5hPa WNW 4mph /  6.4km/h 9mph /  14.5km/h 95% 0in /  0.0mm 7 W/m2
08:25 36.7 °F /  2.6 °C 35.4 °F /  1.9 °C 30.6in /  1034.9hPa WNW 2.9mph /  4.7km/h 6mph /  9.7km/h 95% 0in /  0.0mm 9 W/m2
08:30 36.7 °F /  2.6 °C 35.4 °F /  1.9 °C 30.6in /  1035.2hPa WNW 4mph /  6.4km/h 9mph /  14.5km/h 95% 0in /  0.0mm 12 W/m2
08:35 36.7 °F /  2.6 °C 35.4 °F /  1.9 °C 30.6in /  1035.2hPa West 2mph /  3.2km/h 6mph /  9.7km/h 95% 0in /  0.0mm 14 W/m2
08:40 36.5 °F /  2.5 °C 35.2 °F /  1.8 °C 30.6in /  1035.2hPa West 6mph /  9.7km/h 9mph /  14.5km/h 95% 0in /  0.0mm 19 W/m2
08:46 36.7 °F /  2.6 °C 35.4 °F /  1.9 °C 30.6in /  1035.2hPa West 2mph /  3.2km/h 9mph /  14.5km/h 95% 0in /  0.0mm 30 W/m2
08:51 36.7 °F /  2.6 °C 35.4 °F /  1.9 °C 30.6in /  1035.6hPa West 11mph /  17.7km/h 12mph /  19.3km/h 95% 0in /  0.0mm 28 W/m2
08:56 36.7 °F /  2.6 °C 35.4 °F /  1.9 °C 30.6in /  1035.6hPa West 4mph /  6.4km/h 7mph /  11.3km/h 95% 0in /  0.0mm 44 W/m2
09:01 36.7 °F /  2.6 °C 35.4 °F /  1.9 °C 30.6in /  1035.6hPa West 6mph /  9.7km/h 6mph /  9.7km/h 95% 0in /  0.0mm 32 W/m2
09:06 36.7 °F /  2.6 °C 35.4 °F /  1.9 °C 30.6in /  1035.6hPa WNW 8.9mph /  14.3km/h 9mph /  14.5km/h 95% 0in /  0.0mm 42 W/m2
09:11 36.7 °F /  2.6 °C 35.4 °F /  1.9 °C 30.6in /  1035.6hPa West 6mph /  9.7km/h 10mph /  16.1km/h 95% 0in /  0.0mm 32 W/m2
09:16 36.7 °F /  2.6 °C 35.4 °F /  1.9 °C 30.6in /  1035.9hPa NW 6.9mph /  11.1km/h 10mph /  16.1km/h 95% 0in /  0.0mm 44 W/m2
09:21 36.7 °F /  2.6 °C 35.4 °F /  1.9 °C 30.6in /  1035.9hPa NW 4.9mph /  7.9km/h 10mph /  16.1km/h 95% 0in /  0.0mm 23 W/m2
09:26 36.7 °F /  2.6 °C 35.4 °F /  1.9 °C 30.6in /  1035.9hPa WNW 2.9mph /  4.7km/h 7mph /  11.3km/h 95% 0in /  0.0mm 28 W/m2
09:31 36.7 °F /  2.6 °C 35.4 °F /  1.9 °C 30.6in /  1035.9hPa West 4mph /  6.4km/h 12mph /  19.3km/h 95% 0in /  0.0mm 32 W/m2
09:36 36.7 °F /  2.6 °C 35.4 °F /  1.9 °C 30.6in /  1036.2hPa WNW 2mph /  3.2km/h 6mph /  9.7km/h 95% 0in /  0.0mm 37 W/m2
09:41 36.7 °F /  2.6 °C 35.4 °F /  1.9 °C 30.6in /  1036.2hPa West 6.9mph /  11.1km/h 11mph /  17.7km/h 95% 0in /  0.0mm 69 W/m2
09:46 36.7 °F /  2.6 °C 35.4 °F /  1.9 °C 30.6in /  1036.2hPa West 2.9mph /  4.7km/h 8mph /  12.9km/h 95% 0in /  0.0mm 128 W/m2
09:51 36.9 °F /  2.7 °C 35.6 °F /  2 °C 30.6in /  1035.9hPa WNW 2.9mph /  4.7km/h 11mph /  17.7km/h 95% 0in /  0.0mm 151 W/m2
09:56 37.2 °F /  2.9 °C 36 °F /  2.2 °C 30.6in /  1036.2hPa SW 4mph /  6.4km/h 11mph /  17.7km/h 95% 0in /  0.0mm 178 W/m2
10:01 37.4 °F /  3 °C 36.1 °F /  2.3 °C 30.6in /  1036.2hPa WSW 4.9mph /  7.9km/h 7mph /  11.3km/h 95% 0in /  0.0mm 118 W/m2
10:06 37.8 °F /  3.2 °C 36.5 °F /  2.5 °C 30.6in /  1036.2hPa West 6mph /  9.7km/h 11mph /  17.7km/h 95% 0in /  0.0mm 111 W/m2
10:11 37.8 °F /  3.2 °C 36.5 °F /  2.5 °C 30.6in /  1036.2hPa NW 4mph /  6.4km/h 8mph /  12.9km/h 95% 0in /  0.0mm 148 W/m2
10:16 37.9 °F /  3.3 °C 36.7 °F /  2.6 °C 30.6in /  1036.2hPa WNW 4.9mph /  7.9km/h 11mph /  17.7km/h 95% 0in /  0.0mm 158 W/m2
10:21 38.3 °F /  3.5 °C 37 °F /  2.8 °C 30.6in /  1036.6hPa WSW 8.1mph /  13km/h 12mph /  19.3km/h 95% 0in /  0.0mm 128 W/m2
10:26 38.7 °F /  3.7 °C 37 °F /  2.8 °C 30.6in /  1036.6hPa West 6mph /  9.7km/h 12mph /  19.3km/h 94% 0in /  0.0mm 186 W/m2
10:31 38.7 °F /  3.7 °C 37 °F /  2.8 °C 30.6in /  1036.6hPa NW 8.1mph /  13km/h 9mph /  14.5km/h 94% 0in /  0.0mm 121 W/m2
10:36 38.8 °F /  3.8 °C 37.2 °F /  2.9 °C 30.6in /  1036.6hPa WNW 2.9mph /  4.7km/h 12mph /  19.3km/h 94% 0in /  0.0mm 116 W/m2
10:41 38.8 °F /  3.8 °C 37 °F /  2.8 °C 30.6in /  1036.6hPa West 8.9mph /  14.3km/h 10mph /  16.1km/h 93% 0in /  0.0mm 63 W/m2
10:46 38.8 °F /  3.8 °C 37 °F /  2.8 °C 30.6in /  1036.6hPa West 6mph /  9.7km/h 8mph /  12.9km/h 93% 0in /  0.0mm 86 W/m2
10:51 38.8 °F /  3.8 °C 37 °F /  2.8 °C 30.6in /  1036.6hPa SW 6mph /  9.7km/h 10mph /  16.1km/h 93% 0in /  0.0mm 88 W/m2
10:56 38.8 °F /  3.8 °C 37 °F /  2.8 °C 30.6in /  1036.6hPa WSW 6.9mph /  11.1km/h 11mph /  17.7km/h 93% 0in /  0.0mm 90 W/m2
11:01 38.8 °F /  3.8 °C 36.7 °F /  2.6 °C 30.6in /  1036.9hPa WNW 6mph /  9.7km/h 8mph /  12.9km/h 92% 0in /  0.0mm 90 W/m2
11:06 38.8 °F /  3.8 °C 36.7 °F /  2.6 °C 30.6in /  1036.9hPa West 8.1mph /  13km/h 11mph /  17.7km/h 92% 0in /  0.0mm 84 W/m2
11:11 38.8 °F /  3.8 °C 36.7 °F /  2.6 °C 30.6in /  1036.9hPa WNW 8.1mph /  13km/h 9mph /  14.5km/h 92% 0in /  0.0mm 139 W/m2
11:16 39 °F /  3.9 °C 36.9 °F /  2.7 °C 30.6in /  1036.9hPa West 8.1mph /  13km/h 12mph /  19.3km/h 92% 0in /  0.0mm 209 W/m2
11:21 39.6 °F /  4.2 °C 37.4 °F /  3 °C 30.6in /  1036.9hPa WNW 6.9mph /  11.1km/h 8mph /  12.9km/h 92% 0in /  0.0mm 250 W/m2
11:26 39.6 °F /  4.2 °C 37.4 °F /  3 °C 30.6in /  1036.9hPa WNW 4mph /  6.4km/h 12mph /  19.3km/h 92% 0in /  0.0mm 151 W/m2
11:31 39.7 °F /  4.3 °C 37.6 °F /  3.1 °C 30.6in /  1036.6hPa West 8.9mph /  14.3km/h 12mph /  19.3km/h 92% 0in /  0.0mm 185 W/m2
11:36 39.7 °F /  4.3 °C 37.6 °F /  3.1 °C 30.6in /  1036.9hPa WSW 4mph /  6.4km/h 9mph /  14.5km/h 92% 0in /  0.0mm 190 W/m2
11:41 39.7 °F /  4.3 °C 37.6 °F /  3.1 °C 30.6in /  1036.6hPa West 6mph /  9.7km/h 12mph /  19.3km/h 92% 0in /  0.0mm 149 W/m2
11:46 39.6 °F /  4.2 °C 37.4 °F /  3 °C 30.6in /  1036.6hPa West 6mph /  9.7km/h 9mph /  14.5km/h 92% 0in /  0.0mm 220 W/m2
11:51 39.7 °F /  4.3 °C 37.6 °F /  3.1 °C 30.6in /  1036.6hPa SW 6mph /  9.7km/h 11mph /  17.7km/h 92% 0in /  0.0mm 172 W/m2
11:56 39.7 °F /  4.3 °C 37.4 °F /  3 °C 30.6in /  1036.6hPa WNW 4.9mph /  7.9km/h 13mph /  20.9km/h 91% 0in /  0.0mm 174 W/m2
12:01 39.6 °F /  4.2 °C 37.2 °F /  2.9 °C 30.6in /  1036.6hPa West 6mph /  9.7km/h 8mph /  12.9km/h 91% 0in /  0.0mm 120 W/m2
12:06 39.4 °F /  4.1 °C 37.2 °F /  2.9 °C 30.6in /  1036.6hPa WNW 8.9mph /  14.3km/h 13mph /  20.9km/h 92% 0in /  0.0mm 144 W/m2
12:11 39 °F /  3.9 °C 36.9 °F /  2.7 °C 30.6in /  1036.9hPa WSW 4mph /  6.4km/h 7mph /  11.3km/h 92% 0in /  0.0mm 109 W/m2
12:16 38.8 °F /  3.8 °C 36.7 °F /  2.6 °C 30.6in /  1036.9hPa WNW 9mph /  14.5km/h 9mph /  14.5km/h 92% 0in /  0.0mm 98 W/m2
12:21 38.8 °F /  3.8 °C 36.7 °F /  2.6 °C 30.6in /  1036.9hPa WSW 2.9mph /  4.7km/h 3mph /  4.8km/h 92% 0in /  0.0mm 88 W/m2
12:26 38.8 °F /  3.8 °C 36.7 °F /  2.6 °C 30.6in /  1036.6hPa WNW 2.9mph /  4.7km/h 6mph /  9.7km/h 92% 0in /  0.0mm 88 W/m2
12:31 38.8 °F /  3.8 °C 36.7 °F /  2.6 °C 30.6in /  1036.6hPa NW 2mph /  3.2km/h 4mph /  6.4km/h 92% 0in /  0.0mm 120 W/m2
12:36 38.8 °F /  3.8 °C 36.7 °F /  2.6 °C 30.6in /  1036.6hPa West 0.9mph /  1.4km/h 7mph /  11.3km/h 92% 0in /  0.0mm 102 W/m2
12:41 38.7 °F /  3.7 °C 36.5 °F /  2.5 °C 30.6in /  1036.6hPa West 2mph /  3.2km/h 8mph /  12.9km/h 92% 0in /  0.0mm 116 W/m2
12:46 38.7 °F /  3.7 °C 36.9 °F /  2.7 °C 30.6in /  1036.6hPa WSW 0.9mph /  1.4km/h 3mph /  4.8km/h 93% 0in /  0.0mm 104 W/m2
12:51 38.7 °F /  3.7 °C 36.9 °F /  2.7 °C 30.6in /  1036.6hPa NW 2mph /  3.2km/h 4mph /  6.4km/h 93% 0in /  0.0mm 190 W/m2
12:56 38.7 °F /  3.7 °C 36.9 °F /  2.7 °C 30.6in /  1036.6hPa West 6mph /  9.7km/h 6mph /  9.7km/h 93% 0in /  0.0mm 139 W/m2
13:01 38.8 °F /  3.8 °C 37 °F /  2.8 °C 30.6in /  1036.6hPa WNW 8.1mph /  13km/h 8mph /  12.9km/h 93% 0in /  0.0mm 153 W/m2
13:06 39 °F /  3.9 °C 37.2 °F /  2.9 °C 30.6in /  1036.6hPa NW 2.9mph /  4.7km/h 4mph /  6.4km/h 93% 0in /  0.0mm 130 W/m2
13:11 39.2 °F /  4 °C 37.4 °F /  3 °C 30.6in /  1036.6hPa WNW 7mph /  11.3km/h 7mph /  11.3km/h 93% 0in /  0.0mm 142 W/m2
13:16 39.2 °F /  4 °C 37.4 °F /  3 °C 30.6in /  1036.6hPa WSW 0.9mph /  1.4km/h 5mph /  8km/h 93% 0in /  0.0mm 167 W/m2
13:21 39.4 °F /  4.1 °C 37.6 °F /  3.1 °C 30.6in /  1036.6hPa WNW 2mph /  3.2km/h 4mph /  6.4km/h 93% 0in /  0.0mm 90 W/m2
13:26 39.4 °F /  4.1 °C 37.6 °F /  3.1 °C 30.6in /  1036.6hPa NW 0.9mph /  1.4km/h 4mph /  6.4km/h 93% 0in /  0.0mm 121 W/m2
13:31 39.4 °F /  4.1 °C 37.6 °F /  3.1 °C 30.6in /  1036.9hPa SW 2.9mph /  4.7km/h 4mph /  6.4km/h 93% 0in /  0.0mm 165 W/m2
13:36 39.4 °F /  4.1 °C 37.2 °F /  2.9 °C 30.6in /  1036.6hPa WNW 2mph /  3.2km/h 6mph /  9.7km/h 92% 0in /  0.0mm 132 W/m2
13:41 39.6 °F /  4.2 °C 37.8 °F /  3.2 °C 30.6in /  1036.6hPa WNW 2mph /  3.2km/h 3mph /  4.8km/h 93% 0in /  0.0mm 144 W/m2
13:46 39.6 °F /  4.2 °C 37.4 °F /  3 °C 30.6in /  1036.6hPa WNW 2.9mph /  4.7km/h 4mph /  6.4km/h 92% 0in /  0.0mm 181 W/m2
13:51 39.6 °F /  4.2 °C 37.8 °F /  3.2 °C 30.6in /  1036.2hPa Calm   4mph /  6.4km/h 93% 0in /  0.0mm 163 W/m2
13:56 39.7 °F /  4.3 °C 37.9 °F /  3.3 °C 30.6in /  1036.2hPa West 2.9mph /  4.7km/h 8mph /  12.9km/h 93% 0in /  0.0mm 116 W/m2
14:01 39.7 °F /  4.3 °C 37.6 °F /  3.1 °C 30.6in /  1035.9hPa WSW 2.9mph /  4.7km/h 4mph /  6.4km/h 92% 0in /  0.0mm 163 W/m2
14:06 39.9 °F /  4.4 °C 37.8 °F /  3.2 °C 30.6in /  1035.9hPa West 0.9mph /  1.4km/h 8mph /  12.9km/h 92% 0in /  0.0mm 134 W/m2
14:11 39.9 °F /  4.4 °C 37.8 °F /  3.2 °C 30.6in /  1035.9hPa West 0.9mph /  1.4km/h 3mph /  4.8km/h 92% 0in /  0.0mm 111 W/m2
14:16 40.3 °F /  4.6 °C 38.1 °F /  3.4 °C 30.6in /  1035.9hPa NW 2mph /  3.2km/h 4mph /  6.4km/h 92% 0in /  0.0mm 74 W/m2
14:21 40.3 °F /  4.6 °C 38.1 °F /  3.4 °C 30.6in /  1035.9hPa NW 4.9mph /  7.9km/h 5mph /  8km/h 92% 0in /  0.0mm 81 W/m2
14:26 40.3 °F /  4.6 °C 38.1 °F /  3.4 °C 30.6in /  1035.9hPa WSW 2.9mph /  4.7km/h 8mph /  12.9km/h 92% 0in /  0.0mm 76 W/m2
14:31 40.3 °F /  4.6 °C 38.1 °F /  3.4 °C 30.6in /  1035.9hPa West 4mph /  6.4km/h 7mph /  11.3km/h 92% 0in /  0.0mm 65 W/m2
14:36 40.3 °F /  4.6 °C 38.1 °F /  3.4 °C 30.6in /  1035.9hPa WNW 2mph /  3.2km/h 4mph /  6.4km/h 92% 0in /  0.0mm 49 W/m2
14:41 40.3 °F /  4.6 °C 38.1 °F /  3.4 °C 30.6in /  1035.9hPa WNW 6.9mph /  11.1km/h 7mph /  11.3km/h 92% 0in /  0.0mm 77 W/m2
14:46 40.3 °F /  4.6 °C 38.1 °F /  3.4 °C 30.6in /  1035.9hPa Calm   5mph /  8km/h 92% 0in /  0.0mm 90 W/m2
14:51 40.3 °F /  4.6 °C 38.1 °F /  3.4 °C 30.6in /  1035.6hPa West 2mph /  3.2km/h 3mph /  4.8km/h 92% 0in /  0.0mm 70 W/m2
14:56 40.3 °F /  4.6 °C 38.1 °F /  3.4 °C 30.6in /  1035.6hPa West 2mph /  3.2km/h 7mph /  11.3km/h 92% 0in /  0.0mm 69 W/m2
15:01 40.3 °F /  4.6 °C 38.1 °F /  3.4 °C 30.6in /  1035.6hPa SW 6.9mph /  11.1km/h 7mph /  11.3km/h 92% 0in /  0.0mm 90 W/m2
15:06 40.3 °F /  4.6 °C 38.1 °F /  3.4 °C 30.6in /  1035.6hPa WNW 0.9mph /  1.4km/h 4mph /  6.4km/h 92% 0in /  0.0mm 69 W/m2
15:11 40.5 °F /  4.7 °C 38.3 °F /  3.5 °C 30.6in /  1035.6hPa Calm   3mph /  4.8km/h 92% 0in /  0.0mm 98 W/m2
15:16 40.6 °F /  4.8 °C 38.5 °F /  3.6 °C 30.6in /  1035.6hPa West 4mph /  6.4km/h 6mph /  9.7km/h 92% 0in /  0.0mm 65 W/m2
15:21 40.6 °F /  4.8 °C 38.3 °F /  3.5 °C 30.6in /  1035.6hPa West 2mph /  3.2km/h 4mph /  6.4km/h 91% 0in /  0.0mm 58 W/m2
15:26 40.6 °F /  4.8 °C 38.3 °F /  3.5 °C 30.6in /  1035.6hPa Calm   4mph /  6.4km/h 91% 0in /  0.0mm 37 W/m2
15:32 40.8 °F /  4.9 °C 38.5 °F /  3.6 °C 30.6in /  1035.6hPa West 2mph /  3.2km/h 4mph /  6.4km/h 91% 0in /  0.0mm 40 W/m2
15:37 40.8 °F /  4.9 °C 38.5 °F /  3.6 °C 30.6in /  1035.6hPa WSW 0.9mph /  1.4km/h 3mph /  4.8km/h 91% 0in /  0.0mm 42 W/m2
15:42 40.8 °F /  4.9 °C 38.5 °F /  3.6 °C 30.6in /  1035.6hPa West 0.9mph /  1.4km/h 3mph /  4.8km/h 91% 0in /  0.0mm 47 W/m2
15:47 40.8 °F /  4.9 °C 38.5 °F /  3.6 °C 30.6in /  1035.6hPa Calm   4mph /  6.4km/h 91% 0in /  0.0mm 33 W/m2
15:52 40.8 °F /  4.9 °C 38.1 °F /  3.4 °C 30.6in /  1035.6hPa WNW 2.9mph /  4.7km/h 6mph /  9.7km/h 90% 0in /  0.0mm 30 W/m2
15:57 40.8 °F /  4.9 °C 38.1 °F /  3.4 °C 30.6in /  1035.6hPa WNW 4mph /  6.4km/h 4mph /  6.4km/h 90% 0in /  0.0mm 32 W/m2
16:02 40.8 °F /  4.9 °C 38.1 °F /  3.4 °C 30.6in /  1035.6hPa West 2.9mph /  4.7km/h 7mph /  11.3km/h 90% 0in /  0.0mm 23 W/m2
16:07 40.8 °F /  4.9 °C 38.1 °F /  3.4 °C 30.6in /  1035.6hPa WNW 6mph /  9.7km/h 6mph /  9.7km/h 90% 0in /  0.0mm 32 W/m2
16:12 40.8 °F /  4.9 °C 38.1 °F /  3.4 °C 30.6in /  1035.6hPa West 2mph /  3.2km/h 2mph /  3.2km/h 90% 0in /  0.0mm 32 W/m2
16:17 40.8 °F /  4.9 °C 38.1 °F /  3.4 °C 30.6in /  1035.6hPa WSW 5mph /  8km/h 5mph /  8km/h 90% 0in /  0.0mm 16 W/m2
16:22 40.8 °F /  4.9 °C 38.1 °F /  3.4 °C 30.6in /  1035.6hPa West 2.9mph /  4.7km/h 3mph /  4.8km/h 90% 0in /  0.0mm 9 W/m2
16:27 40.8 °F /  4.9 °C 38.1 °F /  3.4 °C 30.6in /  1035.9hPa NW 2mph /  3.2km/h 3mph /  4.8km/h 90% 0in /  0.0mm 14 W/m2
16:32 40.6 °F /  4.8 °C 37.9 °F /  3.3 °C 30.6in /  1035.9hPa NW 2mph /  3.2km/h 2mph /  3.2km/h 90% 0in /  0.0mm 12 W/m2
16:37 40.6 °F /  4.8 °C 37.9 °F /  3.3 °C 30.6in /  1035.6hPa WNW 2.9mph /  4.7km/h 3mph /  4.8km/h 90% 0in /  0.0mm 12 W/m2
16:42 40.6 °F /  4.8 °C 37.9 °F /  3.3 °C 30.6in /  1035.6hPa Calm   1mph /  1.6km/h 90% 0in /  0.0mm 12 W/m2
16:47 40.5 °F /  4.7 °C 37.8 °F /  3.2 °C 30.6in /  1035.6hPa WSW 2mph /  3.2km/h 6mph /  9.7km/h 90% 0in /  0.0mm 9 W/m2
16:52 40.5 °F /  4.7 °C 37.8 °F /  3.2 °C 30.6in /  1035.6hPa WNW 4mph /  6.4km/h 5mph /  8km/h 90% 0in /  0.0mm 5 W/m2
16:57 40.5 °F /  4.7 °C 37.8 °F /  3.2 °C 30.6in /  1035.6hPa West 4mph /  6.4km/h 7mph /  11.3km/h 90% 0in /  0.0mm 5 W/m2
17:02 40.5 °F /  4.7 °C 37.8 °F /  3.2 °C 30.6in /  1035.9hPa WNW 0.9mph /  1.4km/h 2mph /  3.2km/h 90% 0in /  0.0mm 0 W/m2
17:07 40.5 °F /  4.7 °C 37.8 °F /  3.2 °C 30.6in /  1035.9hPa WNW 0.9mph /  1.4km/h 4mph /  6.4km/h 90% 0in /  0.0mm 0 W/m2
17:12 40.5 °F /  4.7 °C 37.8 °F /  3.2 °C 30.6in /  1035.9hPa Calm   3mph /  4.8km/h 90% 0in /  0.0mm 0 W/m2
17:17 40.3 °F /  4.6 °C 37.9 °F /  3.3 °C 30.6in /  1035.9hPa WNW 0.9mph /  1.4km/h 4mph /  6.4km/h 91% 0in /  0.0mm 0 W/m2
17:22 40.3 °F /  4.6 °C 37.9 °F /  3.3 °C 30.6in /  1035.9hPa Calm   1mph /  1.6km/h 91% 0in /  0.0mm 0 W/m2
17:27 40.3 °F /  4.6 °C 37.9 °F /  3.3 °C 30.6in /  1035.9hPa WNW 2mph /  3.2km/h 3mph /  4.8km/h 91% 0in /  0.0mm 0 W/m2
17:32 40.1 °F /  4.5 °C 37.8 °F /  3.2 °C 30.6in /  1035.9hPa Calm   3mph /  4.8km/h 91% 0in /  0.0mm 0 W/m2
17:37 40.1 °F /  4.5 °C 37.8 °F /  3.2 °C 30.6in /  1035.9hPa SW 2.9mph /  4.7km/h 5mph /  8km/h 91% 0in /  0.0mm 0 W/m2
17:42 39.9 °F /  4.4 °C 37.6 °F /  3.1 °C 30.6in /  1036.2hPa West 2.9mph /  4.7km/h 6mph /  9.7km/h 91% 0in /  0.0mm 0 W/m2
17:47 39.9 °F /  4.4 °C 37.6 °F /  3.1 °C 30.6in /  1036.2hPa West 2.9mph /  4.7km/h 4mph /  6.4km/h 91% 0in /  0.0mm 0 W/m2
17:52 39.9 °F /  4.4 °C 37.6 °F /  3.1 °C 30.6in /  1036.2hPa Calm   2mph /  3.2km/h 91% 0in /  0.0mm 0 W/m2
17:57 39.9 °F /  4.4 °C 37.6 °F /  3.1 °C 30.6in /  1036.2hPa West 2mph /  3.2km/h 4mph /  6.4km/h 91% 0in /  0.0mm 0 W/m2
18:02 39.9 °F /  4.4 °C 37.6 °F /  3.1 °C 30.6in /  1036.2hPa Calm   2mph /  3.2km/h 91% 0in /  0.0mm 0 W/m2
18:07 39.9 °F /  4.4 °C 37.6 °F /  3.1 °C 30.6in /  1036.2hPa WNW 0.9mph /  1.4km/h 4mph /  6.4km/h 91% 0in /  0.0mm 0 W/m2
18:12 39.7 °F /  4.3 °C 37.6 °F /  3.1 °C 30.6in /  1036.2hPa NNW 0.9mph /  1.4km/h 3mph /  4.8km/h 92% 0in /  0.0mm 0 W/m2
18:17 39.7 °F /  4.3 °C 37.4 °F /  3 °C 30.6in /  1036.2hPa WNW 0.9mph /  1.4km/h 4mph /  6.4km/h 91% 0in /  0.0mm 0 W/m2
18:22 39.7 °F /  4.3 °C 37.6 °F /  3.1 °C 30.6in /  1036.2hPa WNW 0.9mph /  1.4km/h 1mph /  1.6km/h 92% 0in /  0.0mm 0 W/m2
18:27 39.7 °F /  4.3 °C 37.4 °F /  3 °C 30.6in /  1036.2hPa Calm     91% 0in /  0.0mm 0 W/m2
18:32 39.7 °F /  4.3 °C 37.4 °F /  3 °C 30.6in /  1036.2hPa West 2mph /  3.2km/h 4mph /  6.4km/h 91% 0in /  0.0mm 0 W/m2
18:37 39.7 °F /  4.3 °C 37.4 °F /  3 °C 30.6in /  1036.2hPa Calm     91% 0in /  0.0mm 0 W/m2
18:42 39.7 °F /  4.3 °C 37.6 °F /  3.1 °C 30.6in /  1036.2hPa WSW 0.9mph /  1.4km/h 4mph /  6.4km/h 92% 0in /  0.0mm 0 W/m2
18:47 39.7 °F /  4.3 °C 37.6 °F /  3.1 °C 30.6in /  1036.2hPa West 0.9mph /  1.4km/h 3mph /  4.8km/h 92% 0in /  0.0mm 0 W/m2
18:52 39.7 °F /  4.3 °C 37.6 °F /  3.1 °C 30.6in /  1036.2hPa West 2.9mph /  4.7km/h 4mph /  6.4km/h 92% 0in /  0.0mm 0 W/m2
18:57 39.6 °F /  4.2 °C 37.4 °F /  3 °C 30.6in /  1036.2hPa West 0.9mph /  1.4km/h 2mph /  3.2km/h 92% 0in /  0.0mm 0 W/m2
19:02 39.6 °F /  4.2 °C 37.4 °F /  3 °C 30.6in /  1036.2hPa WNW 2.9mph /  4.7km/h 3mph /  4.8km/h 92% 0in /  0.0mm 0 W/m2
19:07 39.4 °F /  4.1 °C 37.2 °F /  2.9 °C 30.6in /  1035.9hPa South 0.9mph /  1.4km/h 2mph /  3.2km/h 92% 0in /  0.0mm 0 W/m2
19:12 39.4 °F /  4.1 °C 37.6 °F /  3.1 °C 30.6in /  1035.9hPa Calm   2mph /  3.2km/h 93% 0in /  0.0mm 0 W/m2
19:17 39.4 °F /  4.1 °C 37.6 °F /  3.1 °C 30.6in /  1035.9hPa WNW 0.9mph /  1.4km/h 1mph /  1.6km/h 93% 0in /  0.0mm 0 W/m2
19:22 39.2 °F /  4 °C 37.4 °F /  3 °C 30.6in /  1035.9hPa Calm     93% 0in /  0.0mm 0 W/m2
19:27 39 °F /  3.9 °C 37.2 °F /  2.9 °C 30.6in /  1035.9hPa SE 2mph /  3.2km/h 2mph /  3.2km/h 93% 0in /  0.0mm 0 W/m2
19:32 39 °F /  3.9 °C 37.2 °F /  2.9 °C 30.6in /  1035.9hPa Calm   1mph /  1.6km/h 93% 0in /  0.0mm 0 W/m2
19:37 39 °F /  3.9 °C 37.2 °F /  2.9 °C 30.6in /  1035.9hPa West 2.9mph /  4.7km/h 4mph /  6.4km/h 93% 0in /  0.0mm 0 W/m2
19:42 38.8 °F /  3.8 °C 37.2 °F /  2.9 °C 30.6in /  1035.9hPa WNW 2mph /  3.2km/h 3mph /  4.8km/h 94% 0in /  0.0mm 0 W/m2
19:47 38.8 °F /  3.8 °C 37 °F /  2.8 °C 30.6in /  1035.9hPa West 2.9mph /  4.7km/h 6mph /  9.7km/h 93% 0in /  0.0mm 0 W/m2
19:52 38.8 °F /  3.8 °C 37.2 °F /  2.9 °C 30.6in /  1035.9hPa Calm   2mph /  3.2km/h 94% 0in /  0.0mm 0 W/m2
19:57 38.7 °F /  3.7 °C 37 °F /  2.8 °C 30.6in /  1035.9hPa Calm   1mph /  1.6km/h 94% 0in /  0.0mm 0 W/m2
20:02 38.7 °F /  3.7 °C 37 °F /  2.8 °C 30.6in /  1035.9hPa NW 0.9mph /  1.4km/h 2mph /  3.2km/h 94% 0in /  0.0mm 0 W/m2
20:07 38.7 °F /  3.7 °C 37 °F /  2.8 °C 30.6in /  1035.9hPa NW 0.9mph /  1.4km/h 3mph /  4.8km/h 94% 0in /  0.0mm 0 W/m2
20:12 38.5 °F /  3.6 °C 36.9 °F /  2.7 °C 30.6in /  1035.9hPa Calm   3mph /  4.8km/h 94% 0in /  0.0mm 0 W/m2
20:17 38.5 °F /  3.6 °C 36.9 °F /  2.7 °C 30.6in /  1035.9hPa West 0.9mph /  1.4km/h 2mph /  3.2km/h 94% 0in /  0.0mm 0 W/m2
20:22 38.5 °F /  3.6 °C 36.9 °F /  2.7 °C 30.6in /  1035.9hPa West 0.9mph /  1.4km/h 3mph /  4.8km/h 94% 0in /  0.0mm 0 W/m2
20:27 38.3 °F /  3.5 °C 36.7 °F /  2.6 °C 30.6in /  1035.9hPa NNW 2mph /  3.2km/h 4mph /  6.4km/h 94% 0in /  0.0mm 0 W/m2
20:32 38.3 °F /  3.5 °C 36.7 °F /  2.6 °C 30.6in /  1035.9hPa West 2mph /  3.2km/h 3mph /  4.8km/h 94% 0in /  0.0mm 0 W/m2
20:37 38.1 °F /  3.4 °C 36.5 °F /  2.5 °C 30.6in /  1035.9hPa NW 4mph /  6.4km/h 6mph /  9.7km/h 94% 0in /  0.0mm 0 W/m2
20:42 38.1 °F /  3.4 °C 36.5 °F /  2.5 °C 30.6in /  1035.9hPa West 2mph /  3.2km/h 4mph /  6.4km/h 94% 0in /  0.0mm 0 W/m2
20:47 38.1 °F /  3.4 °C 36.9 °F /  2.7 °C 30.6in /  1035.9hPa WSW 0.9mph /  1.4km/h 6mph /  9.7km/h 95% 0in /  0.0mm 0 W/m2
20:52 37.9 °F /  3.3 °C 36.7 °F /  2.6 °C 30.6in /  1035.9hPa NW 0.9mph /  1.4km/h 2mph /  3.2km/h 95% 0in /  0.0mm 0 W/m2
20:57 37.9 °F /  3.3 °C 36.7 °F /  2.6 °C 30.6in /  1035.9hPa WNW 2mph /  3.2km/h 6mph /  9.7km/h 95% 0in /  0.0mm 0 W/m2
21:02 37.9 °F /  3.3 °C 36.7 °F /  2.6 °C 30.6in /  1035.6hPa Calm   3mph /  4.8km/h 95% 0in /  0.0mm 0 W/m2
21:07 37.9 °F /  3.3 °C 36.7 °F /  2.6 °C 30.6in /  1035.6hPa NW 0.9mph /  1.4km/h 2mph /  3.2km/h 95% 0in /  0.0mm 0 W/m2
21:12 37.9 °F /  3.3 °C 36.7 °F /  2.6 °C 30.6in /  1035.9hPa Calm     95% 0in /  0.0mm 0 W/m2
21:17 37.9 °F /  3.3 °C 36.7 °F /  2.6 °C 30.6in /  1035.6hPa South 0.9mph /  1.4km/h 3mph /  4.8km/h 95% 0in /  0.0mm 0 W/m2
21:22 37.8 °F /  3.2 °C 36.5 °F /  2.5 °C 30.6in /  1035.6hPa WNW 2mph /  3.2km/h 2mph /  3.2km/h 95% 0in /  0.0mm 0 W/m2
21:27 37.8 °F /  3.2 °C 36.5 °F /  2.5 °C 30.6in /  1035.6hPa WNW 2.9mph /  4.7km/h 4mph /  6.4km/h 95% 0in /  0.0mm 0 W/m2
21:32 37.8 °F /  3.2 °C 36.5 °F /  2.5 °C 30.6in /  1035.6hPa West 0.9mph /  1.4km/h 3mph /  4.8km/h 95% 0in /  0.0mm 0 W/m2
21:37 37.8 °F /  3.2 °C 36.5 °F /  2.5 °C 30.6in /  1035.6hPa West 2mph /  3.2km/h 2mph /  3.2km/h 95% 0in /  0.0mm 0 W/m2
21:42 37.8 °F /  3.2 °C 36.5 °F /  2.5 °C 30.6in /  1035.2hPa NW 2mph /  3.2km/h 3mph /  4.8km/h 95% 0in /  0.0mm 0 W/m2
21:47 37.8 °F /  3.2 °C 36.5 °F /  2.5 °C 30.6in /  1035.6hPa Calm   1mph /  1.6km/h 95% 0in /  0.0mm 0 W/m2
21:52 37.8 °F /  3.2 °C 36.5 °F /  2.5 °C 30.6in /  1035.6hPa Calm   4mph /  6.4km/h 95% 0in /  0.0mm 0 W/m2
21:57 37.6 °F /  3.1 °C 36.3 °F /  2.4 °C 30.6in /  1035.2hPa Calm   4mph /  6.4km/h 95% 0in /  0.0mm 0 W/m2
22:02 37.6 °F /  3.1 °C 36.3 °F /  2.4 °C 30.6in /  1035.2hPa NW 2mph /  3.2km/h 3mph /  4.8km/h 95% 0in /  0.0mm 0 W/m2
22:07 37.6 °F /  3.1 °C 36.3 °F /  2.4 °C 30.6in /  1035.2hPa Calm   3mph /  4.8km/h 95% 0in /  0.0mm 0 W/m2
22:12 37.6 °F /  3.1 °C 36.3 °F /  2.4 °C 30.6in /  1035.2hPa Calm   1mph /  1.6km/h 95% 0in /  0.0mm 0 W/m2
22:17 37.6 °F /  3.1 °C 36.3 °F /  2.4 °C 30.6in /  1035.2hPa WNW 2.9mph /  4.7km/h 3mph /  4.8km/h 95% 0in /  0.0mm 0 W/m2
22:22 37.6 °F /  3.1 °C 36.3 °F /  2.4 °C 30.6in /  1035.2hPa NW 0.9mph /  1.4km/h 2mph /  3.2km/h 95% 0in /  0.0mm 0 W/m2
22:27 37.4 °F /  3 °C 36.1 °F /  2.3 °C 30.6in /  1035.2hPa Calm   2mph /  3.2km/h 95% 0in /  0.0mm 0 W/m2
22:32 37.4 °F /  3 °C 36.1 °F /  2.3 °C 30.6in /  1035.2hPa WNW 2mph /  3.2km/h 4mph /  6.4km/h 95% 0in /  0.0mm 0 W/m2
22:37 37.2 °F /  2.9 °C 36 °F /  2.2 °C 30.6in /  1035.2hPa West 0.9mph /  1.4km/h 2mph /  3.2km/h 95% 0in /  0.0mm 0 W/m2
22:42 37.2 °F /  2.9 °C 36 °F /  2.2 °C 30.6in /  1035.2hPa Calm   3mph /  4.8km/h 95% 0in /  0.0mm 0 W/m2
22:47 37.2 °F /  2.9 °C 36 °F /  2.2 °C 30.6in /  1035.2hPa WSW 0.9mph /  1.4km/h 1mph /  1.6km/h 95% 0in /  0.0mm 0 W/m2
22:52 37.2 °F /  2.9 °C 36 °F /  2.2 °C 30.6in /  1035.2hPa WSW 2mph /  3.2km/h 8mph /  12.9km/h 95% 0in /  0.0mm 0 W/m2
22:57 37 °F /  2.8 °C 35.8 °F /  2.1 °C 30.6in /  1035.2hPa West 2mph /  3.2km/h 3mph /  4.8km/h 95% 0in /  0.0mm 0 W/m2
23:02 37 °F /  2.8 °C 35.8 °F /  2.1 °C 30.6in /  1035.2hPa Calm   8mph /  12.9km/h 95% 0in /  0.0mm 0 W/m2
23:07 37 °F /  2.8 °C 35.8 °F /  2.1 °C 30.6in /  1035.2hPa Calm   3mph /  4.8km/h 95% 0in /  0.0mm 0 W/m2
23:12 37 °F /  2.8 °C 35.8 °F /  2.1 °C 30.6in /  1035.2hPa WNW 2mph /  3.2km/h 2mph /  3.2km/h 95% 0in /  0.0mm 0 W/m2
23:17 37 °F /  2.8 °C 35.8 °F /  2.1 °C 30.6in /  1035.2hPa WSW 2mph /  3.2km/h 3mph /  4.8km/h 95% 0in /  0.0mm 0 W/m2
23:22 36.9 °F /  2.7 °C 35.6 °F /  2 °C 30.6in /  1034.9hPa WSW 2mph /  3.2km/h 4mph /  6.4km/h 95% 0in /  0.0mm 0 W/m2
23:27 36.9 °F /  2.7 °C 35.6 °F /  2 °C 30.6in /  1034.9hPa WNW 2mph /  3.2km/h 6mph /  9.7km/h 95% 0in /  0.0mm 0 W/m2
23:32 36.9 °F /  2.7 °C 35.6 °F /  2 °C 30.6in /  1034.5hPa NW 0.9mph /  1.4km/h 2mph /  3.2km/h 95% 0in /  0.0mm 0 W/m2
23:37 36.9 °F /  2.7 °C 35.6 °F /  2 °C 30.6in /  1034.5hPa WSW 2mph /  3.2km/h 5mph /  8km/h 95% 0in /  0.0mm 0 W/m2
23:42 36.9 °F /  2.7 °C 35.6 °F /  2 °C 30.6in /  1034.5hPa SW 2mph /  3.2km/h 5mph /  8km/h 95% 0in /  0.0mm 0 W/m2
23:47 36.9 °F /  2.7 °C 35.6 °F /  2 °C 30.6in /  1034.5hPa NNW 2.9mph /  4.7km/h 3mph /  4.8km/h 95% 0in /  0.0mm 0 W/m2
23:52 36.9 °F /  2.7 °C 35.6 °F /  2 °C 30.5in /  1034.2hPa NW 2mph /  3.2km/h 4mph /  6.4km/h 95% 0in /  0.0mm 0 W/m2
23:57 36.9 °F /  2.7 °C 35.6 °F /  2 °C 30.5in /  1034.2hPa SSW 2mph /  3.2km/h 4mph /  6.4km/h 95% 0in /  0.0mm 0 W/m2
Juneau County Weather
Compliments of Weather Underground - 4 mb